AirNav   SIMCOM
 
 982 users online  

TS23 MGM Heliport
Austin, Texas, USA

GOING TO AUSTIN?


FAA INFORMATION EFFECTIVE 20 JULY 2017

Location

FAA Identifier: TS23
Lat/Long: 30-20-14.7300N / 097-54-22.0300W
30-20.245500N / 097-54.367167W
30.3374250 / -97.9061194
(estimated)
Elevation: 540 ft. / 165 m (estimated)
Variation: 06E (2000)
From city: 15 miles NW of AUSTIN, TX
Time zone: UTC -5 (UTC -6 during Standard Time)
Zip code: 78732

Heliport Operations

Heliport use: Private use. Permission required prior to landing
Activation date: 02/2002
Control tower: no
ARTCC: HOUSTON CENTER
FSS: SAN ANGELO FLIGHT SERVICE STATION
Attendance: UNATNDD
Wind indicator: yes
Segmented circle: no

Heliport Communications

WX ASOS at RYW (10 nm N): 119.375 (512-267-1365)
WX ASOS at AUS (15 nm SE): PHONE 512-369-7881
WX AWOS-3 at EDC (18 nm E): 118.825 (512-616-2967)

Nearby radio navigation aids

VOR radial/distance  VOR name  Freq  Var
CWKr257/19.6CENTEX VORTAC112.8006E

Heliport Services

Runway Information

Helipad H1

Dimensions: 100 x 100 ft. / 30 x 30 m
Surface: concrete
Traffic pattern: leftleft

Heliport Ownership and Management from official FAA records

Ownership: Privately-owned
Owner: MGM HOLDINGS INC
12021 SELMA HUGHES PARK ROAD
AUSTIN, TX 78759
Phone 512-266-1011
Manager: MICHAEL MCCARTHY
12021 SELMA HUGHES PARK ROAD
AUSTIN, TX 78759
Phone 512-266-1011

Heliport Operational Statistics

Aircraft based on the field: 1
Helicopters: 1
    

Additional Remarks

A52-H1 40 FT TREES 50 FT SOUTH & 40 FT PLINE 150 FT WEST OF HELIPAD.

Instrument Procedures

There are no published instrument procedures at TS23.

Some nearby airports with instrument procedures:

3R9 - Lakeway Airpark (5 nm W)
KRYW - Lago Vista TX - Rusty Allen Airport (10 nm N)
KAUS - Austin-Bergstrom International Airport (15 nm SE)
KEDC - Austin Executive Airport (18 nm E)
KGTU - Georgetown Municipal Airport (24 nm NE)
 
Loc | Ops | Rwys | IFR | FBO | Links
Com | Nav | Svcs | Stats | Notes


 
Area around TS23 (MGM Heliport)
 
Road maps at: MapQuest Bing Google
 
Aerial photo
No photo
 
Sectional chart

 
Airport distance calculator
Flying to MGM Heliport? Find the distance to fly.

From to TS23

Sunrise and sunset
Times for 22-Jul-2017
 Local
(UTC-5)
 Zulu
(UTC)
Morning civil twilight06:1811:18
Sunrise06:4511:45
Sunset20:3101:31
Evening civil twilight20:5801:58

Current date and time
Zulu (UTC)  22-Jul-2017 21:42:14
Local (UTC-5)  22-Jul-2017 16:42:14
 
METAR
KRYW 
10nm N 
222115Z AUTO 14005KT 10SM CLR 38/16 A2993 RMK AO2 T03760157
KATT 
11nm E 
222051Z AUTO VRB04KT 10SM FEW080 38/17 A2990 RMK AO2 SLP108 T03830167 56023
KAUS 
11nm E 
222053Z 20006G14KT 10SM SCT075 SCT200 BKN250 37/18 A2988 RMK AO2 SLP106 T03670183 57024
KEDC 
18nm E 
222115Z AUTO 00000KT 36/18 A2989 RMK AO2
TAF
KAUS 
11nm E 
221720Z 2218/2324 18010KT P6SM FEW070 SCT250 FM231100 20006KT P6SM SCT015 FM231600 18010KT P6SM SCT060 SCT250
NOTAMs
Click for the latest NOTAMs
NOTAMs are issued by the DoD/FAA and will open in a separate window not controlled by AirNav.

 

 
 

Would you like to see your business listed on this page?

 If your business provides an interesting product or service to pilots, flight crews, aircraft, or users of the MGM Heliport, you should consider listing it here.  To start the listing process, click on the button below
 
Add a business
 

Other Pages about MGM Heliport

Update a link
 
Copyright © AirNav, LLC. All rights reserved. Privacy Policy  Contact